Bryce Canyon, Utah
Current Conditions -  °F | °C
As of 4:53 AM on Sunday 21 Dec 2014 (Local Time) from KBCE Reporting Station
Clear Clear  
Wind Chill: 21°   Ceiling: Unl
Heat Index: 31°   Visibility: 10mi
Dew Point: 24°   Wind: 13mph
Humidity: 76%   Direction: 300°WNW
Pressure: 30.06"   Gusts: NA
Location:  37.63°N, 112.17°W
Report Text: KBCE 211153Z AUTO 30011KT 10SM CLR M01/M04 A3006 RMK AO2 SLP149 T10061044 10000 21083 58014
Loading
Personal Weather Stations






























Interactive Weather Map New forecast layout! Learn more

10-Day Weather Forecast

Advertisements
Track Severe Weather on mobile